sensor_id;sensor_type;location;lat;lon;timestamp;temperature;humidity
44990;DHT22;30723;51.206;3.326;2023-02-11T00:01:06;7.10;99.90
44990;DHT22;30723;51.206;3.326;2023-02-11T00:03:33;7.10;99.90
44990;DHT22;30723;51.206;3.326;2023-02-11T00:06:02;7.20;99.90
44990;DHT22;30723;51.206;3.326;2023-02-11T00:08:29;7.20;99.90
44990;DHT22;30723;51.206;3.326;2023-02-11T00:10:57;7.20;99.90
44990;DHT22;30723;51.206;3.326;2023-02-11T00:13:24;7.20;99.90
44990;DHT22;30723;51.206;3.326;2023-02-11T00:15:51;7.20;99.90
44990;DHT22;30723;51.206;3.326;2023-02-11T00:18:18;7.30;99.90
44990;DHT22;30723;51.206;3.326;2023-02-11T00:20:44;7.20;99.90
44990;DHT22;30723;51.206;3.326;2023-02-11T00:23:10;7.20;99.90
44990;DHT22;30723;51.206;3.326;2023-02-11T00:25:41;7.10;99.90
44990;DHT22;30723;51.206;3.326;2023-02-11T00:28:08;7.10;99.90
44990;DHT22;30723;51.206;3.326;2023-02-11T00:30:35;7.20;99.90
44990;DHT22;30723;51.206;3.326;2023-02-11T00:33:01;7.10;99.90
44990;DHT22;30723;51.206;3.326;2023-02-11T00:35:28;7.10;99.90
44990;DHT22;30723;51.206;3.326;2023-02-11T00:37:55;7.10;99.90
44990;DHT22;30723;51.206;3.326;2023-02-11T00:40:22;7.10;99.90
44990;DHT22;30723;51.206;3.326;2023-02-11T00:42:49;7.10;99.90
44990;DHT22;30723;51.206;3.326;2023-02-11T00:45:14;7.20;99.90
44990;DHT22;30723;51.206;3.326;2023-02-11T00:47:40;7.20;99.90
44990;DHT22;30723;51.206;3.326;2023-02-11T00:50:06;7.20;99.90
44990;DHT22;30723;51.206;3.326;2023-02-11T00:52:33;7.20;99.90
44990;DHT22;30723;51.206;3.326;2023-02-11T00:55:00;7.20;99.90
44990;DHT22;30723;51.206;3.326;2023-02-11T00:57:26;7.30;99.90
44990;DHT22;30723;51.206;3.326;2023-02-11T00:59:53;7.30;99.90
44990;DHT22;30723;51.206;3.326;2023-02-11T01:02:18;7.40;99.90
44990;DHT22;30723;51.206;3.326;2023-02-11T01:04:45;7.30;99.90
44990;DHT22;30723;51.206;3.326;2023-02-11T01:07:11;7.30;99.90
44990;DHT22;30723;51.206;3.326;2023-02-11T01:09:38;7.30;99.90
44990;DHT22;30723;51.206;3.326;2023-02-11T01:12:05;7.30;99.90
44990;DHT22;30723;51.206;3.326;2023-02-11T01:14:32;7.30;99.90
44990;DHT22;30723;51.206;3.326;2023-02-11T01:16:59;7.40;99.90
44990;DHT22;30723;51.206;3.326;2023-02-11T01:19:26;7.50;99.90
44990;DHT22;30723;51.206;3.326;2023-02-11T01:21:52;7.50;99.90
44990;DHT22;30723;51.206;3.326;2023-02-11T01:24:19;7.50;99.90
44990;DHT22;30723;51.206;3.326;2023-02-11T01:26:46;7.50;99.90
44990;DHT22;30723;51.206;3.326;2023-02-11T01:29:13;7.50;99.90
44990;DHT22;30723;51.206;3.326;2023-02-11T01:31:39;7.50;99.90
44990;DHT22;30723;51.206;3.326;2023-02-11T01:34:05;7.60;99.90
44990;DHT22;30723;51.206;3.326;2023-02-11T01:36:31;7.60;99.90
44990;DHT22;30723;51.206;3.326;2023-02-11T01:38:57;7.60;99.90
44990;DHT22;30723;51.206;3.326;2023-02-11T01:41:24;7.60;99.90
44990;DHT22;30723;51.206;3.326;2023-02-11T01:43:50;7.60;99.90
44990;DHT22;30723;51.206;3.326;2023-02-11T01:46:19;7.60;99.90
44990;DHT22;30723;51.206;3.326;2023-02-11T01:48:56;7.60;99.90
44990;DHT22;30723;51.206;3.326;2023-02-11T01:51:50;7.50;99.90
44990;DHT22;30723;51.206;3.326;2023-02-11T01:54:21;7.60;99.90
44990;DHT22;30723;51.206;3.326;2023-02-11T01:57:07;7.70;99.90
44990;DHT22;30723;51.206;3.326;2023-02-11T02:02:53;7.60;99.90
44990;DHT22;30723;51.206;3.326;2023-02-11T02:06:00;7.60;99.90
44990;DHT22;30723;51.206;3.326;2023-02-11T02:08:43;7.60;99.90
44990;DHT22;30723;51.206;3.326;2023-02-11T02:11:12;7.60;99.90
44990;DHT22;30723;51.206;3.326;2023-02-11T02:13:39;7.70;99.90
44990;DHT22;30723;51.206;3.326;2023-02-11T02:16:10;7.60;99.90
44990;DHT22;30723;51.206;3.326;2023-02-11T02:35:47;7.50;99.90
44990;DHT22;30723;51.206;3.326;2023-02-11T02:40:56;7.50;99.90
44990;DHT22;30723;51.206;3.326;2023-02-11T02:43:25;7.60;99.90
44990;DHT22;30723;51.206;3.326;2023-02-11T02:45:53;7.50;99.90
44990;DHT22;30723;51.206;3.326;2023-02-11T02:48:48;7.40;99.90
44990;DHT22;30723;51.206;3.326;2023-02-11T03:05:17;7.40;99.90
44990;DHT22;30723;51.206;3.326;2023-02-11T03:07:54;7.50;99.90
44990;DHT22;30723;51.206;3.326;2023-02-11T03:10:46;7.40;99.90
44990;DHT22;30723;51.206;3.326;2023-02-11T03:13:15;7.30;99.90
44990;DHT22;30723;51.206;3.326;2023-02-11T03:15:45;7.30;99.90
44990;DHT22;30723;51.206;3.326;2023-02-11T03:18:13;7.30;99.90
44990;DHT22;30723;51.206;3.326;2023-02-11T03:20:43;7.30;99.90
44990;DHT22;30723;51.206;3.326;2023-02-11T03:25:52;7.30;99.90
44990;DHT22;30723;51.206;3.326;2023-02-11T03:28:34;7.10;99.90
44990;DHT22;30723;51.206;3.326;2023-02-11T03:31:17;7.20;99.90
44990;DHT22;30723;51.206;3.326;2023-02-11T03:36:26;7.20;99.90
44990;DHT22;30723;51.206;3.326;2023-02-11T03:38:58;7.10;99.90
44990;DHT22;30723;51.206;3.326;2023-02-11T03:41:26;7.10;99.90
44990;DHT22;30723;51.206;3.326;2023-02-11T03:43:55;7.10;99.90
44990;DHT22;30723;51.206;3.326;2023-02-11T03:46:29;7.10;99.90
44990;DHT22;30723;51.206;3.326;2023-02-11T03:49:05;7.10;99.90
44990;DHT22;30723;51.206;3.326;2023-02-11T03:51:34;7.10;99.90
44990;DHT22;30723;51.206;3.326;2023-02-11T03:54:05;7.00;99.90
44990;DHT22;30723;51.206;3.326;2023-02-11T03:56:41;6.90;99.90
44990;DHT22;30723;51.206;3.326;2023-02-11T03:59:08;6.80;99.90
44990;DHT22;30723;51.206;3.326;2023-02-11T04:01:37;6.80;99.90
44990;DHT22;30723;51.206;3.326;2023-02-11T04:04:05;6.90;99.90
44990;DHT22;30723;51.206;3.326;2023-02-11T04:06:31;6.70;99.90
44990;DHT22;30723;51.206;3.326;2023-02-11T04:08:57;6.60;99.90
44990;DHT22;30723;51.206;3.326;2023-02-11T04:11:23;6.80;99.90
44990;DHT22;30723;51.206;3.326;2023-02-11T04:13:49;6.80;99.90
44990;DHT22;30723;51.206;3.326;2023-02-11T04:16:14;6.90;99.90
44990;DHT22;30723;51.206;3.326;2023-02-11T04:18:40;7.00;99.90
44990;DHT22;30723;51.206;3.326;2023-02-11T04:21:07;7.00;99.90
44990;DHT22;30723;51.206;3.326;2023-02-11T04:23:34;7.00;99.90
44990;DHT22;30723;51.206;3.326;2023-02-11T04:26:01;7.00;99.90
44990;DHT22;30723;51.206;3.326;2023-02-11T04:28:27;7.00;99.90
44990;DHT22;30723;51.206;3.326;2023-02-11T04:30:55;7.00;99.90
44990;DHT22;30723;51.206;3.326;2023-02-11T04:33:22;7.00;99.90
44990;DHT22;30723;51.206;3.326;2023-02-11T04:35:50;7.00;99.90
44990;DHT22;30723;51.206;3.326;2023-02-11T04:38:16;7.00;99.90
44990;DHT22;30723;51.206;3.326;2023-02-11T04:40:43;7.00;99.90
44990;DHT22;30723;51.206;3.326;2023-02-11T04:43:09;7.10;99.90
44990;DHT22;30723;51.206;3.326;2023-02-11T04:45:34;7.00;99.90
44990;DHT22;30723;51.206;3.326;2023-02-11T04:48:01;7.10;99.90
44990;DHT22;30723;51.206;3.326;2023-02-11T04:50:28;7.10;99.90
44990;DHT22;30723;51.206;3.326;2023-02-11T04:52:53;7.00;99.90
44990;DHT22;30723;51.206;3.326;2023-02-11T04:55:19;7.00;99.90
44990;DHT22;30723;51.206;3.326;2023-02-11T04:57:45;6.90;99.90
44990;DHT22;30723;51.206;3.326;2023-02-11T05:00:14;6.90;99.90
44990;DHT22;30723;51.206;3.326;2023-02-11T05:02:41;6.90;99.90
44990;DHT22;30723;51.206;3.326;2023-02-11T05:05:07;6.90;99.90
44990;DHT22;30723;51.206;3.326;2023-02-11T05:07:34;7.00;99.90
44990;DHT22;30723;51.206;3.326;2023-02-11T05:10:00;6.90;99.90
44990;DHT22;30723;51.206;3.326;2023-02-11T05:12:27;7.00;99.90
44990;DHT22;30723;51.206;3.326;2023-02-11T05:14:52;6.90;99.90
44990;DHT22;30723;51.206;3.326;2023-02-11T05:17:18;6.90;99.90
44990;DHT22;30723;51.206;3.326;2023-02-11T05:19:44;6.90;99.90
44990;DHT22;30723;51.206;3.326;2023-02-11T05:22:10;6.90;99.90
44990;DHT22;30723;51.206;3.326;2023-02-11T05:24:36;6.90;99.90
44990;DHT22;30723;51.206;3.326;2023-02-11T05:27:02;6.90;99.90
44990;DHT22;30723;51.206;3.326;2023-02-11T05:29:27;6.80;99.90
44990;DHT22;30723;51.206;3.326;2023-02-11T05:31:54;6.70;99.90
44990;DHT22;30723;51.206;3.326;2023-02-11T05:34:21;6.70;99.90
44990;DHT22;30723;51.206;3.326;2023-02-11T05:36:48;6.60;99.90
44990;DHT22;30723;51.206;3.326;2023-02-11T05:39:14;6.60;99.90
44990;DHT22;30723;51.206;3.326;2023-02-11T05:41:40;6.60;99.90
44990;DHT22;30723;51.206;3.326;2023-02-11T05:44:05;6.70;99.90
44990;DHT22;30723;51.206;3.326;2023-02-11T05:46:31;6.70;99.90
44990;DHT22;30723;51.206;3.326;2023-02-11T05:48:57;6.70;99.90
44990;DHT22;30723;51.206;3.326;2023-02-11T05:51:23;6.60;99.90
44990;DHT22;30723;51.206;3.326;2023-02-11T05:53:51;6.60;99.90
44990;DHT22;30723;51.206;3.326;2023-02-11T05:56:17;6.50;99.90
44990;DHT22;30723;51.206;3.326;2023-02-11T05:58:43;6.50;99.90
44990;DHT22;30723;51.206;3.326;2023-02-11T06:01:10;6.50;99.90
44990;DHT22;30723;51.206;3.326;2023-02-11T06:03:36;6.40;99.90
44990;DHT22;30723;51.206;3.326;2023-02-11T06:06:02;6.50;99.90
44990;DHT22;30723;51.206;3.326;2023-02-11T06:08:27;6.50;99.90
44990;DHT22;30723;51.206;3.326;2023-02-11T06:10:53;6.40;99.90
44990;DHT22;30723;51.206;3.326;2023-02-11T06:13:19;6.50;99.90
44990;DHT22;30723;51.206;3.326;2023-02-11T06:15:55;6.50;99.90
44990;DHT22;30723;51.206;3.326;2023-02-11T06:18:20;6.50;99.90
44990;DHT22;30723;51.206;3.326;2023-02-11T06:20:47;6.40;99.90
44990;DHT22;30723;51.206;3.326;2023-02-11T06:23:13;6.40;99.90
44990;DHT22;30723;51.206;3.326;2023-02-11T06:25:39;6.30;99.90
44990;DHT22;30723;51.206;3.326;2023-02-11T06:28:04;6.20;99.90
44990;DHT22;30723;51.206;3.326;2023-02-11T06:30:31;6.30;99.90
44990;DHT22;30723;51.206;3.326;2023-02-11T06:32:56;6.30;99.90
44990;DHT22;30723;51.206;3.326;2023-02-11T06:35:23;6.40;99.90
44990;DHT22;30723;51.206;3.326;2023-02-11T06:37:48;6.50;99.90
44990;DHT22;30723;51.206;3.326;2023-02-11T06:40:14;6.40;99.90
44990;DHT22;30723;51.206;3.326;2023-02-11T06:42:41;6.50;99.90
44990;DHT22;30723;51.206;3.326;2023-02-11T06:45:09;6.40;99.90
44990;DHT22;30723;51.206;3.326;2023-02-11T06:47:37;6.40;99.90
44990;DHT22;30723;51.206;3.326;2023-02-11T06:50:05;6.30;99.90
44990;DHT22;30723;51.206;3.326;2023-02-11T06:52:32;6.30;99.90
44990;DHT22;30723;51.206;3.326;2023-02-11T06:54:58;6.30;99.90
44990;DHT22;30723;51.206;3.326;2023-02-11T06:57:24;6.40;99.90
44990;DHT22;30723;51.206;3.326;2023-02-11T06:59:50;6.50;99.90
44990;DHT22;30723;51.206;3.326;2023-02-11T07:02:17;6.50;99.90
44990;DHT22;30723;51.206;3.326;2023-02-11T07:04:43;6.60;99.90
44990;DHT22;30723;51.206;3.326;2023-02-11T07:07:10;6.70;99.90
44990;DHT22;30723;51.206;3.326;2023-02-11T07:09:35;6.70;99.90
44990;DHT22;30723;51.206;3.326;2023-02-11T07:12:02;6.70;99.90
44990;DHT22;30723;51.206;3.326;2023-02-11T07:14:29;6.80;99.90
44990;DHT22;30723;51.206;3.326;2023-02-11T07:16:55;6.80;99.90
44990;DHT22;30723;51.206;3.326;2023-02-11T07:19:22;6.90;99.90
44990;DHT22;30723;51.206;3.326;2023-02-11T07:21:49;6.90;99.90
44990;DHT22;30723;51.206;3.326;2023-02-11T07:24:15;6.90;99.90
44990;DHT22;30723;51.206;3.326;2023-02-11T07:26:42;6.90;99.90
44990;DHT22;30723;51.206;3.326;2023-02-11T07:29:10;7.00;99.90
44990;DHT22;30723;51.206;3.326;2023-02-11T07:31:37;7.00;99.90
44990;DHT22;30723;51.206;3.326;2023-02-11T07:34:04;7.10;99.90
44990;DHT22;30723;51.206;3.326;2023-02-11T07:36:31;7.20;99.90
44990;DHT22;30723;51.206;3.326;2023-02-11T07:38:58;7.30;99.90
44990;DHT22;30723;51.206;3.326;2023-02-11T07:41:25;7.20;99.90
44990;DHT22;30723;51.206;3.326;2023-02-11T07:43:53;7.40;99.90
44990;DHT22;30723;51.206;3.326;2023-02-11T07:46:25;7.40;99.90
44990;DHT22;30723;51.206;3.326;2023-02-11T07:48:52;7.50;99.90
44990;DHT22;30723;51.206;3.326;2023-02-11T07:53:49;7.60;99.90
44990;DHT22;30723;51.206;3.326;2023-02-11T07:56:18;7.70;99.90
44990;DHT22;30723;51.206;3.326;2023-02-11T07:58:45;7.60;99.90
44990;DHT22;30723;51.206;3.326;2023-02-11T08:01:15;7.70;99.90
44990;DHT22;30723;51.206;3.326;2023-02-11T08:03:42;7.80;99.90
44990;DHT22;30723;51.206;3.326;2023-02-11T08:06:11;7.90;99.90
44990;DHT22;30723;51.206;3.326;2023-02-11T08:08:39;7.80;99.90
44990;DHT22;30723;51.206;3.326;2023-02-11T08:11:25;7.90;99.90
44990;DHT22;30723;51.206;3.326;2023-02-11T08:13:53;8.00;99.90
44990;DHT22;30723;51.206;3.326;2023-02-11T08:16:31;8.00;99.90
44990;DHT22;30723;51.206;3.326;2023-02-11T08:19:00;8.10;99.90
44990;DHT22;30723;51.206;3.326;2023-02-11T08:21:27;8.00;99.90
44990;DHT22;30723;51.206;3.326;2023-02-11T08:23:53;8.20;99.90
44990;DHT22;30723;51.206;3.326;2023-02-11T08:26:23;8.10;99.90
44990;DHT22;30723;51.206;3.326;2023-02-11T08:28:52;8.10;99.90
44990;DHT22;30723;51.206;3.326;2023-02-11T08:31:23;8.20;99.90
44990;DHT22;30723;51.206;3.326;2023-02-11T08:33:50;8.30;99.90
44990;DHT22;30723;51.206;3.326;2023-02-11T08:36:18;8.30;99.90
44990;DHT22;30723;51.206;3.326;2023-02-11T08:38:46;8.30;99.90
44990;DHT22;30723;51.206;3.326;2023-02-11T08:41:13;8.40;99.90
44990;DHT22;30723;51.206;3.326;2023-02-11T08:43:41;8.40;99.90
44990;DHT22;30723;51.206;3.326;2023-02-11T08:46:27;8.60;99.90
44990;DHT22;30723;51.206;3.326;2023-02-11T08:48:53;8.50;99.90
44990;DHT22;30723;51.206;3.326;2023-02-11T08:51:25;8.60;99.90
44990;DHT22;30723;51.206;3.326;2023-02-11T08:53:52;8.50;99.90
44990;DHT22;30723;51.206;3.326;2023-02-11T08:56:19;8.60;99.90
44990;DHT22;30723;51.206;3.326;2023-02-11T08:58:46;8.60;99.90
44990;DHT22;30723;51.206;3.326;2023-02-11T09:01:21;8.60;99.90
44990;DHT22;30723;51.206;3.326;2023-02-11T09:03:47;8.60;99.90
44990;DHT22;30723;51.206;3.326;2023-02-11T09:06:13;8.50;99.90
44990;DHT22;30723;51.206;3.326;2023-02-11T09:08:44;8.50;99.90
44990;DHT22;30723;51.206;3.326;2023-02-11T09:11:10;8.50;99.90
44990;DHT22;30723;51.206;3.326;2023-02-11T09:13:36;8.60;99.90
44990;DHT22;30723;51.206;3.326;2023-02-11T09:16:03;8.60;99.90
44990;DHT22;30723;51.206;3.326;2023-02-11T09:18:31;8.70;99.90
44990;DHT22;30723;51.206;3.326;2023-02-11T09:21:07;8.80;99.90
44990;DHT22;30723;51.206;3.326;2023-02-11T09:23:34;8.80;99.90
44990;DHT22;30723;51.206;3.326;2023-02-11T09:26:17;8.90;99.90
44990;DHT22;30723;51.206;3.326;2023-02-11T09:28:46;9.10;99.90
44990;DHT22;30723;51.206;3.326;2023-02-11T09:31:15;9.00;99.90
44990;DHT22;30723;51.206;3.326;2023-02-11T09:33:43;9.10;99.90
44990;DHT22;30723;51.206;3.326;2023-02-11T09:36:16;9.20;99.90
44990;DHT22;30723;51.206;3.326;2023-02-11T09:38:43;9.30;99.90
44990;DHT22;30723;51.206;3.326;2023-02-11T09:44:21;9.30;99.90
44990;DHT22;30723;51.206;3.326;2023-02-11T09:47:05;9.20;99.90
44990;DHT22;30723;51.206;3.326;2023-02-11T09:49:38;9.10;99.90
44990;DHT22;30723;51.206;3.326;2023-02-11T09:54:55;9.00;99.90
44990;DHT22;30723;51.206;3.326;2023-02-11T09:57:24;9.00;99.90
44990;DHT22;30723;51.206;3.326;2023-02-11T09:59:51;9.10;99.90
44990;DHT22;30723;51.206;3.326;2023-02-11T10:02:38;9.20;99.90
44990;DHT22;30723;51.206;3.326;2023-02-11T10:07:38;9.20;99.90
44990;DHT22;30723;51.206;3.326;2023-02-11T10:23:33;9.30;99.90
44990;DHT22;30723;51.206;3.326;2023-02-11T10:25:59;9.50;99.90
44990;DHT22;30723;51.206;3.326;2023-02-11T10:28:33;9.50;99.90
44990;DHT22;30723;51.206;3.326;2023-02-11T10:33:35;9.50;99.90
44990;DHT22;30723;51.206;3.326;2023-02-11T10:36:09;9.60;99.90
44990;DHT22;30723;51.206;3.326;2023-02-11T10:38:36;9.70;99.90
44990;DHT22;30723;51.206;3.326;2023-02-11T10:41:04;9.60;99.90
44990;DHT22;30723;51.206;3.326;2023-02-11T10:43:32;9.60;99.90
44990;DHT22;30723;51.206;3.326;2023-02-11T10:45:59;9.60;99.90
44990;DHT22;30723;51.206;3.326;2023-02-11T10:51:20;9.80;99.90
44990;DHT22;30723;51.206;3.326;2023-02-11T10:56:46;9.90;99.90
44990;DHT22;30723;51.206;3.326;2023-02-11T10:59:28;9.90;99.90
44990;DHT22;30723;51.206;3.326;2023-02-11T11:02:22;10.10;99.90
44990;DHT22;30723;51.206;3.326;2023-02-11T11:04:48;10.10;99.90
44990;DHT22;30723;51.206;3.326;2023-02-11T11:07:27;10.20;99.90
44990;DHT22;30723;51.206;3.326;2023-02-11T11:10:06;10.10;99.90
44990;DHT22;30723;51.206;3.326;2023-02-11T11:12:53;10.00;99.90
44990;DHT22;30723;51.206;3.326;2023-02-11T11:15:27;10.10;99.90
44990;DHT22;30723;51.206;3.326;2023-02-11T11:18:20;10.10;99.90
44990;DHT22;30723;51.206;3.326;2023-02-11T11:21:00;10.30;99.90
44990;DHT22;30723;51.206;3.326;2023-02-11T11:23:49;10.40;99.90
44990;DHT22;30723;51.206;3.326;2023-02-11T11:26:17;10.50;99.90
44990;DHT22;30723;51.206;3.326;2023-02-11T11:28:50;10.70;99.90
44990;DHT22;30723;51.206;3.326;2023-02-11T11:31:44;10.70;99.90
44990;DHT22;30723;51.206;3.326;2023-02-11T11:36:57;10.50;99.90
44990;DHT22;30723;51.206;3.326;2023-02-11T11:39:28;10.60;99.90
44990;DHT22;30723;51.206;3.326;2023-02-11T11:42:02;10.50;99.90
44990;DHT22;30723;51.206;3.326;2023-02-11T11:44:37;10.50;99.90
44990;DHT22;30723;51.206;3.326;2023-02-11T11:47:24;10.50;99.90
44990;DHT22;30723;51.206;3.326;2023-02-11T11:56:12;10.20;99.90
44990;DHT22;30723;51.206;3.326;2023-02-11T11:58:42;10.50;99.90
44990;DHT22;30723;51.206;3.326;2023-02-11T12:09:44;10.30;99.90
44990;DHT22;30723;51.206;3.326;2023-02-11T12:17:46;10.60;99.90
44990;DHT22;30723;51.206;3.326;2023-02-11T12:20:54;10.70;99.90
44990;DHT22;30723;51.206;3.326;2023-02-11T12:23:35;10.60;99.90
44990;DHT22;30723;51.206;3.326;2023-02-11T12:42:22;10.80;99.90
44990;DHT22;30723;51.206;3.326;2023-02-11T12:45:21;10.90;99.90
44990;DHT22;30723;51.206;3.326;2023-02-11T12:48:17;10.70;99.90
44990;DHT22;30723;51.206;3.326;2023-02-11T12:53:55;10.90;99.90
44990;DHT22;30723;51.206;3.326;2023-02-11T13:02:16;10.70;99.90
44990;DHT22;30723;51.206;3.326;2023-02-11T13:04:48;10.70;99.90
44990;DHT22;30723;51.206;3.326;2023-02-11T13:07:39;10.80;99.90
44990;DHT22;30723;51.206;3.326;2023-02-11T13:12:44;10.80;99.90
44990;DHT22;30723;51.206;3.326;2023-02-11T13:15:30;10.80;99.90
44990;DHT22;30723;51.206;3.326;2023-02-11T13:21:00;11.00;99.90
44990;DHT22;30723;51.206;3.326;2023-02-11T13:31:52;11.10;99.90
44990;DHT22;30723;51.206;3.326;2023-02-11T13:37:35;11.00;99.90
44990;DHT22;30723;51.206;3.326;2023-02-11T13:40:25;11.00;99.90
44990;DHT22;30723;51.206;3.326;2023-02-11T13:42:59;10.90;99.90
44990;DHT22;30723;51.206;3.326;2023-02-11T13:48:05;10.90;99.90
44990;DHT22;30723;51.206;3.326;2023-02-11T13:50:38;11.00;99.90
44990;DHT22;30723;51.206;3.326;2023-02-11T13:53:05;11.10;99.90
44990;DHT22;30723;51.206;3.326;2023-02-11T13:55:33;11.20;99.90
44990;DHT22;30723;51.206;3.326;2023-02-11T13:58:32;11.20;99.90
44990;DHT22;30723;51.206;3.326;2023-02-11T14:01:00;11.20;99.90
44990;DHT22;30723;51.206;3.326;2023-02-11T14:03:35;11.30;99.90
44990;DHT22;30723;51.206;3.326;2023-02-11T14:06:24;11.40;99.90
44990;DHT22;30723;51.206;3.326;2023-02-11T14:14:22;11.30;99.90
44990;DHT22;30723;51.206;3.326;2023-02-11T14:19:35;11.10;99.90
44990;DHT22;30723;51.206;3.326;2023-02-11T14:33:46;10.90;99.90
44990;DHT22;30723;51.206;3.326;2023-02-11T14:36:42;10.90;99.90
44990;DHT22;30723;51.206;3.326;2023-02-11T14:41:56;10.90;99.90
44990;DHT22;30723;51.206;3.326;2023-02-11T14:44:27;10.90;99.90
44990;DHT22;30723;51.206;3.326;2023-02-11T14:46:55;10.80;99.90
44990;DHT22;30723;51.206;3.326;2023-02-11T14:49:31;10.80;99.90
44990;DHT22;30723;51.206;3.326;2023-02-11T14:54:48;10.70;99.90
44990;DHT22;30723;51.206;3.326;2023-02-11T14:57:18;10.80;99.90
44990;DHT22;30723;51.206;3.326;2023-02-11T14:59:58;10.80;99.90
44990;DHT22;30723;51.206;3.326;2023-02-11T15:02:37;10.80;99.90
44990;DHT22;30723;51.206;3.326;2023-02-11T15:05:32;10.80;99.90
44990;DHT22;30723;51.206;3.326;2023-02-11T15:08:01;10.80;99.90
44990;DHT22;30723;51.206;3.326;2023-02-11T15:10:42;10.80;99.90
44990;DHT22;30723;51.206;3.326;2023-02-11T15:13:17;10.90;99.90
44990;DHT22;30723;51.206;3.326;2023-02-11T15:15:43;10.80;99.90
44990;DHT22;30723;51.206;3.326;2023-02-11T15:18:18;10.80;99.90
44990;DHT22;30723;51.206;3.326;2023-02-11T15:20:47;10.70;99.90
44990;DHT22;30723;51.206;3.326;2023-02-11T15:23:33;10.90;99.90
44990;DHT22;30723;51.206;3.326;2023-02-11T15:26:00;10.90;99.90
44990;DHT22;30723;51.206;3.326;2023-02-11T15:28:33;11.00;99.90
44990;DHT22;30723;51.206;3.326;2023-02-11T15:31:15;10.90;99.90
44990;DHT22;30723;51.206;3.326;2023-02-11T15:33:41;10.80;99.90
44990;DHT22;30723;51.206;3.326;2023-02-11T15:36:12;10.90;99.90
44990;DHT22;30723;51.206;3.326;2023-02-11T15:38:38;10.80;99.90
44990;DHT22;30723;51.206;3.326;2023-02-11T15:41:06;10.70;99.90
44990;DHT22;30723;51.206;3.326;2023-02-11T15:43:45;10.80;99.90
44990;DHT22;30723;51.206;3.326;2023-02-11T15:46:22;10.80;99.90
44990;DHT22;30723;51.206;3.326;2023-02-11T15:48:51;10.70;99.90
44990;DHT22;30723;51.206;3.326;2023-02-11T15:51:19;10.70;99.90
44990;DHT22;30723;51.206;3.326;2023-02-11T15:53:51;10.60;99.90
44990;DHT22;30723;51.206;3.326;2023-02-11T15:56:35;10.60;99.90
44990;DHT22;30723;51.206;3.326;2023-02-11T15:59:16;10.70;99.90
44990;DHT22;30723;51.206;3.326;2023-02-11T16:01:44;10.70;99.90
44990;DHT22;30723;51.206;3.326;2023-02-11T16:04:26;10.60;99.90
44990;DHT22;30723;51.206;3.326;2023-02-11T16:06:54;10.70;99.90
44990;DHT22;30723;51.206;3.326;2023-02-11T16:09:35;10.50;99.90
44990;DHT22;30723;51.206;3.326;2023-02-11T16:12:22;10.60;99.90
44990;DHT22;30723;51.206;3.326;2023-02-11T16:14:49;10.50;99.90
44990;DHT22;30723;51.206;3.326;2023-02-11T16:17:22;10.60;99.90
44990;DHT22;30723;51.206;3.326;2023-02-11T16:19:51;10.40;99.90
44990;DHT22;30723;51.206;3.326;2023-02-11T16:22:37;10.40;99.90
44990;DHT22;30723;51.206;3.326;2023-02-11T16:25:06;10.30;99.90
44990;DHT22;30723;51.206;3.326;2023-02-11T16:27:40;10.40;99.90
44990;DHT22;30723;51.206;3.326;2023-02-11T16:30:28;10.50;99.90
44990;DHT22;30723;51.206;3.326;2023-02-11T16:32:56;10.50;99.90
44990;DHT22;30723;51.206;3.326;2023-02-11T16:35:30;10.60;99.90
44990;DHT22;30723;51.206;3.326;2023-02-11T16:37:59;10.50;99.90
44990;DHT22;30723;51.206;3.326;2023-02-11T16:40:25;10.40;99.90
44990;DHT22;30723;51.206;3.326;2023-02-11T16:42:51;10.40;99.90
44990;DHT22;30723;51.206;3.326;2023-02-11T16:45:19;10.30;99.90
44990;DHT22;30723;51.206;3.326;2023-02-11T16:47:45;10.30;99.90
44990;DHT22;30723;51.206;3.326;2023-02-11T16:50:21;10.30;99.90
44990;DHT22;30723;51.206;3.326;2023-02-11T16:52:48;10.20;99.90
44990;DHT22;30723;51.206;3.326;2023-02-11T16:55:15;10.10;99.90
44990;DHT22;30723;51.206;3.326;2023-02-11T16:57:42;10.10;99.90
44990;DHT22;30723;51.206;3.326;2023-02-11T17:00:10;10.10;99.90
44990;DHT22;30723;51.206;3.326;2023-02-11T17:02:41;10.30;99.90
44990;DHT22;30723;51.206;3.326;2023-02-11T17:05:18;10.40;99.90
44990;DHT22;30723;51.206;3.326;2023-02-11T17:07:45;10.20;99.90
44990;DHT22;30723;51.206;3.326;2023-02-11T17:10:15;10.20;99.90
44990;DHT22;30723;51.206;3.326;2023-02-11T17:12:45;10.20;99.90
44990;DHT22;30723;51.206;3.326;2023-02-11T17:15:11;10.20;99.90
44990;DHT22;30723;51.206;3.326;2023-02-11T17:17:36;10.20;99.90
44990;DHT22;30723;51.206;3.326;2023-02-11T17:20:04;10.10;99.90
44990;DHT22;30723;51.206;3.326;2023-02-11T17:22:31;10.10;99.90
44990;DHT22;30723;51.206;3.326;2023-02-11T17:25:05;10.10;99.90
44990;DHT22;30723;51.206;3.326;2023-02-11T17:27:31;10.10;99.90
44990;DHT22;30723;51.206;3.326;2023-02-11T17:29:59;10.10;99.90
44990;DHT22;30723;51.206;3.326;2023-02-11T17:32:25;10.10;99.90
44990;DHT22;30723;51.206;3.326;2023-02-11T17:34:52;10.00;99.90
44990;DHT22;30723;51.206;3.326;2023-02-11T17:37:18;9.90;99.90
44990;DHT22;30723;51.206;3.326;2023-02-11T17:39:43;9.90;99.90
44990;DHT22;30723;51.206;3.326;2023-02-11T17:42:09;9.90;99.90
44990;DHT22;30723;51.206;3.326;2023-02-11T17:44:36;9.90;99.90
44990;DHT22;30723;51.206;3.326;2023-02-11T17:47:02;9.90;99.90
44990;DHT22;30723;51.206;3.326;2023-02-11T17:49:29;9.90;99.90
44990;DHT22;30723;51.206;3.326;2023-02-11T17:51:55;9.80;99.90
44990;DHT22;30723;51.206;3.326;2023-02-11T17:54:21;10.00;99.90
44990;DHT22;30723;51.206;3.326;2023-02-11T17:56:47;10.00;99.90
44990;DHT22;30723;51.206;3.326;2023-02-11T17:59:15;9.90;99.90
44990;DHT22;30723;51.206;3.326;2023-02-11T18:01:42;10.00;99.90
44990;DHT22;30723;51.206;3.326;2023-02-11T18:04:12;10.00;99.90
44990;DHT22;30723;51.206;3.326;2023-02-11T18:06:38;10.10;99.90
44990;DHT22;30723;51.206;3.326;2023-02-11T18:09:06;10.00;99.90
44990;DHT22;30723;51.206;3.326;2023-02-11T18:11:33;9.90;99.90
44990;DHT22;30723;51.206;3.326;2023-02-11T18:14:00;9.80;99.90
44990;DHT22;30723;51.206;3.326;2023-02-11T18:16:26;9.80;99.90
44990;DHT22;30723;51.206;3.326;2023-02-11T18:18:54;9.80;99.90
44990;DHT22;30723;51.206;3.326;2023-02-11T18:21:21;9.90;99.90
44990;DHT22;30723;51.206;3.326;2023-02-11T18:23:49;9.80;99.90
44990;DHT22;30723;51.206;3.326;2023-02-11T18:26:17;9.70;99.90
44990;DHT22;30723;51.206;3.326;2023-02-11T18:28:45;9.70;99.90
44990;DHT22;30723;51.206;3.326;2023-02-11T18:31:12;9.70;99.90
44990;DHT22;30723;51.206;3.326;2023-02-11T18:33:40;9.70;99.90
44990;DHT22;30723;51.206;3.326;2023-02-11T18:36:12;9.60;99.90
44990;DHT22;30723;51.206;3.326;2023-02-11T18:38:40;9.70;99.90
44990;DHT22;30723;51.206;3.326;2023-02-11T18:41:06;9.70;99.90
44990;DHT22;30723;51.206;3.326;2023-02-11T18:43:33;9.70;99.90
44990;DHT22;30723;51.206;3.326;2023-02-11T18:46:00;9.70;99.90
44990;DHT22;30723;51.206;3.326;2023-02-11T18:48:27;9.70;99.90